createdAt,value
2018-07-06T00:01:53.653Z,99.90
2018-07-06T00:04:39.728Z,99.90
2018-07-06T00:07:25.756Z,99.90
2018-07-06T00:10:11.947Z,99.90
2018-07-06T00:12:57.938Z,99.90
2018-07-06T00:15:43.904Z,99.90
2018-07-06T00:18:31.056Z,99.90
2018-07-06T00:21:17.122Z,99.90
2018-07-06T00:24:03.214Z,99.90
2018-07-06T00:26:49.285Z,99.90
2018-07-06T00:29:35.684Z,99.90
2018-07-06T00:32:21.726Z,99.90
2018-07-06T00:35:07.818Z,99.90
2018-07-06T00:37:53.889Z,99.90
2018-07-06T00:40:41.472Z,99.90
2018-07-06T00:43:27.454Z,99.90
2018-07-06T00:46:13.586Z,99.90
2018-07-06T00:48:59.680Z,99.90
2018-07-06T00:51:47.256Z,99.90
2018-07-06T00:54:33.356Z,99.90
2018-07-06T00:57:19.494Z,99.90
2018-07-06T01:00:05.583Z,99.90
2018-07-06T01:02:52.187Z,99.90
2018-07-06T01:05:38.146Z,99.90
2018-07-06T01:08:24.224Z,99.90
2018-07-06T01:11:10.514Z,99.90
2018-07-06T01:13:56.881Z,99.90
2018-07-06T01:16:42.979Z,99.90
2018-07-06T01:19:29.300Z,99.90
2018-07-06T01:22:15.372Z,99.90
2018-07-06T01:25:01.562Z,99.90
2018-07-06T01:27:47.588Z,99.90
2018-07-06T01:30:33.677Z,99.90
2018-07-06T01:33:20.686Z,99.90
2018-07-06T01:36:06.813Z,99.90
2018-07-06T01:38:52.785Z,99.90
2018-07-06T01:41:38.698Z,99.90
2018-07-06T01:44:24.587Z,99.90
2018-07-06T01:47:11.080Z,99.90
2018-07-06T01:49:57.081Z,99.90
2018-07-06T01:52:43.124Z,99.90
2018-07-06T01:55:29.116Z,99.90
2018-07-06T01:58:15.417Z,99.90
2018-07-06T02:01:01.542Z,99.90
2018-07-06T02:03:47.760Z,99.90
2018-07-06T02:06:34.250Z,99.90
2018-07-06T02:09:20.342Z,99.90
2018-07-06T02:12:06.290Z,99.90
2018-07-06T02:14:52.464Z,99.90
2018-07-06T02:17:38.516Z,99.90
2018-07-06T02:20:25.020Z,99.90
2018-07-06T02:23:11.101Z,99.90
2018-07-06T02:25:57.148Z,99.90
2018-07-06T02:28:45.593Z,99.90
2018-07-06T02:31:32.000Z,99.90
2018-07-06T02:34:18.129Z,99.90
2018-07-06T02:37:04.441Z,99.90
2018-07-06T02:39:50.520Z,99.90
2018-07-06T02:42:36.973Z,99.90
2018-07-06T02:45:23.069Z,99.90
2018-07-06T02:48:09.574Z,99.90
2018-07-06T02:50:56.404Z,99.90
2018-07-06T02:53:42.593Z,99.90
2018-07-06T02:56:28.536Z,99.90
2018-07-06T02:59:14.745Z,99.90
2018-07-06T03:02:02.219Z,99.90
2018-07-06T03:04:49.073Z,99.90
2018-07-06T03:07:35.014Z,99.90
2018-07-06T03:10:21.137Z,99.90
2018-07-06T03:13:07.245Z,99.90
2018-07-06T03:15:53.382Z,99.90
2018-07-06T03:18:39.397Z,99.90
2018-07-06T03:21:25.429Z,99.90
2018-07-06T03:24:11.517Z,99.90
2018-07-06T03:26:57.669Z,99.90
2018-07-06T03:29:43.724Z,99.90
2018-07-06T03:32:29.941Z,99.90
2018-07-06T03:35:16.041Z,99.90
2018-07-06T03:38:02.514Z,99.90
2018-07-06T03:40:48.469Z,99.90
2018-07-06T03:43:34.524Z,99.90
2018-07-06T03:46:20.693Z,99.90
2018-07-06T03:49:08.006Z,99.90
2018-07-06T03:51:54.145Z,99.90
2018-07-06T03:54:40.420Z,99.90
2018-07-06T03:57:26.550Z,99.90
2018-07-06T04:00:12.685Z,99.90
2018-07-06T04:02:58.781Z,99.90
2018-07-06T04:05:45.093Z,99.90
2018-07-06T04:08:31.200Z,99.90
2018-07-06T04:11:17.293Z,99.90
2018-07-06T04:14:03.393Z,99.90
2018-07-06T04:16:49.383Z,99.90
2018-07-06T04:19:35.501Z,99.90
2018-07-06T04:22:22.570Z,99.90
2018-07-06T04:25:08.513Z,99.90
2018-07-06T04:27:54.766Z,99.90
2018-07-06T04:30:40.649Z,99.90
2018-07-06T04:33:26.734Z,99.90
2018-07-06T04:36:12.777Z,99.90
2018-07-06T04:38:58.821Z,99.90
2018-07-06T04:41:44.954Z,99.90
2018-07-06T04:44:32.545Z,99.90
2018-07-06T04:47:18.621Z,99.90
2018-07-06T04:50:04.477Z,99.90
2018-07-06T04:52:50.583Z,99.90
2018-07-06T04:55:36.937Z,99.90
2018-07-06T04:58:23.042Z,99.90
2018-07-06T05:01:09.325Z,99.90
2018-07-06T05:03:55.342Z,99.90
2018-07-06T05:06:42.363Z,99.90
2018-07-06T05:09:28.393Z,99.90
2018-07-06T05:12:14.832Z,99.90
2018-07-06T05:15:00.777Z,99.90
2018-07-06T05:17:46.944Z,99.90
2018-07-06T05:20:33.049Z,99.90
2018-07-06T05:23:19.378Z,99.90
2018-07-06T05:26:06.245Z,99.90
2018-07-06T05:28:52.905Z,99.90
2018-07-06T05:31:39.545Z,99.90
2018-07-06T05:34:25.759Z,99.90
2018-07-06T05:37:11.885Z,99.90
2018-07-06T05:39:58.257Z,99.90
2018-07-06T05:42:44.457Z,99.90
2018-07-06T05:45:30.829Z,99.90
2018-07-06T05:48:16.867Z,99.90
2018-07-06T05:51:03.177Z,99.90
2018-07-06T05:53:49.175Z,99.90
2018-07-06T05:56:35.161Z,99.90
2018-07-06T05:59:21.326Z,99.90
2018-07-06T06:02:07.818Z,99.90
2018-07-06T06:04:53.765Z,99.90
2018-07-06T06:07:25.809Z,99.90
2018-07-06T06:09:55.032Z,99.90
2018-07-06T06:12:24.158Z,99.90
2018-07-06T06:14:53.826Z,99.90
2018-07-06T06:17:22.944Z,98.70
2018-07-06T06:19:52.069Z,99.90
2018-07-06T06:22:21.435Z,99.10
2018-07-06T06:24:50.912Z,98.70
2018-07-06T06:27:20.013Z,98.50
2018-07-06T06:29:50.006Z,98.80
2018-07-06T06:32:19.097Z,97.60
2018-07-06T06:34:48.229Z,97.20
2018-07-06T06:37:17.423Z,96.80
2018-07-06T06:39:46.821Z,97.00
2018-07-06T06:42:15.925Z,95.80
2018-07-06T06:44:45.068Z,95.40
2018-07-06T06:47:14.116Z,95.20
2018-07-06T06:49:43.684Z,96.90
2018-07-06T06:52:12.961Z,98.00
2018-07-06T06:54:42.092Z,95.60
2018-07-06T06:57:11.209Z,96.60
2018-07-06T06:59:40.577Z,96.10
2018-07-06T07:02:09.760Z,95.00
2018-07-06T07:04:38.828Z,95.90
2018-07-06T07:07:07.880Z,96.20
2018-07-06T07:09:37.359Z,95.70
2018-07-06T07:12:07.937Z,92.90
2018-07-06T07:14:37.161Z,94.40
2018-07-06T07:17:06.335Z,94.90
2018-07-06T07:19:35.441Z,92.50
2018-07-06T07:22:05.447Z,95.20
2018-07-06T07:24:34.645Z,92.00
2018-07-06T07:27:04.021Z,91.80
2018-07-06T07:29:34.144Z,93.40
2018-07-06T07:32:03.326Z,93.80
2018-07-06T07:34:32.838Z,94.40
2018-07-06T07:37:02.576Z,90.80
2018-07-06T07:39:32.201Z,93.10
2018-07-06T07:42:01.385Z,91.20
2018-07-06T07:44:30.456Z,86.80
2018-07-06T07:46:59.933Z,83.90
2018-07-06T07:49:29.152Z,79.80
2018-07-06T07:52:15.272Z,77.50
2018-07-06T07:54:50.312Z,72.80
2018-07-06T07:57:19.795Z,68.70
2018-07-06T07:59:49.533Z,68.80
2018-07-06T08:02:18.927Z,60.10
2018-07-06T08:04:48.628Z,53.00
2018-07-06T08:07:18.376Z,47.40
2018-07-06T08:09:47.557Z,50.40
2018-07-06T08:12:16.676Z,51.90
2018-07-06T08:14:45.917Z,52.00
2018-07-06T08:17:15.057Z,47.70
2018-07-06T08:19:44.349Z,45.40
2018-07-06T08:22:13.472Z,51.30
2018-07-06T08:24:42.645Z,49.00
2018-07-06T08:27:12.865Z,46.70
2018-07-06T08:29:41.986Z,41.70
2018-07-06T08:32:11.034Z,40.90
2018-07-06T08:34:56.956Z,44.10
2018-07-06T08:37:48.028Z,49.40
2018-07-06T08:40:17.432Z,54.50
2018-07-06T08:42:47.908Z,53.80
2018-07-06T08:45:17.094Z,51.40
2018-07-06T08:47:46.963Z,44.10
2018-07-06T08:50:16.104Z,42.90
2018-07-06T08:52:46.217Z,42.00
2018-07-06T08:55:15.366Z,38.90
2018-07-06T08:57:45.448Z,37.50
2018-07-06T09:00:14.696Z,38.60
2018-07-06T09:02:43.881Z,39.80
2018-07-06T09:05:13.669Z,37.90
2018-07-06T09:07:43.784Z,37.90
2018-07-06T09:10:12.925Z,34.10
2018-07-06T09:12:42.256Z,33.70
2018-07-06T09:15:11.479Z,33.40
2018-07-06T09:17:40.637Z,33.10
2018-07-06T09:20:09.898Z,36.30
2018-07-06T09:22:38.953Z,34.20
2018-07-06T09:25:08.449Z,35.10
2018-07-06T09:27:38.037Z,37.30
2018-07-06T09:30:07.377Z,40.50
2018-07-06T09:32:36.640Z,35.90
2018-07-06T09:35:06.032Z,33.70
2018-07-06T09:37:35.149Z,32.30
2018-07-06T09:40:04.395Z,32.00
2018-07-06T09:42:33.498Z,31.30
2018-07-06T09:45:03.514Z,30.20
2018-07-06T09:47:32.691Z,34.80
2018-07-06T09:50:02.376Z,32.10
2018-07-06T09:52:31.989Z,33.80
2018-07-06T09:55:01.425Z,37.90
2018-07-06T09:57:30.573Z,36.60
2018-07-06T10:00:00.730Z,35.80
2018-07-06T10:02:29.870Z,35.00
2018-07-06T10:04:59.029Z,33.60
2018-07-06T10:07:28.105Z,32.10
2018-07-06T10:09:57.277Z,39.70
2018-07-06T10:12:27.071Z,44.10
2018-07-06T10:14:56.165Z,46.30
2018-07-06T10:17:25.386Z,40.70
2018-07-06T10:19:54.540Z,36.50
2018-07-06T10:22:24.198Z,37.10
2018-07-06T10:24:53.407Z,38.90
2018-07-06T10:27:30.687Z,37.70
2018-07-06T10:30:06.789Z,37.10
2018-07-06T10:32:35.977Z,33.80
2018-07-06T10:35:05.450Z,34.50
2018-07-06T10:37:34.558Z,33.90
2018-07-06T10:40:03.874Z,32.50
2018-07-06T10:42:33.682Z,33.90
2018-07-06T10:45:03.906Z,31.10
2018-07-06T10:47:33.021Z,30.30
2018-07-06T10:50:02.202Z,32.70
2018-07-06T10:52:31.642Z,32.70
2018-07-06T10:55:00.766Z,30.90
2018-07-06T10:57:30.194Z,34.40
2018-07-06T10:59:59.545Z,35.20
2018-07-06T11:02:28.709Z,34.00
2018-07-06T11:04:57.820Z,31.60
2018-07-06T11:07:27.355Z,34.00
2018-07-06T11:09:57.726Z,37.20
2018-07-06T11:12:27.125Z,39.00
2018-07-06T11:14:56.277Z,38.90
2018-07-06T11:17:25.341Z,38.00
2018-07-06T11:19:54.417Z,36.10
2018-07-06T11:22:24.385Z,37.40
2018-07-06T11:24:53.521Z,38.00
2018-07-06T11:27:22.729Z,35.20
2018-07-06T11:29:51.874Z,40.80
2018-07-06T11:32:21.026Z,42.20
2018-07-06T11:34:50.168Z,41.50
2018-07-06T11:37:19.264Z,40.20
2018-07-06T11:39:48.892Z,38.80
2018-07-06T11:42:18.016Z,38.40
2018-07-06T11:44:47.393Z,39.70
2018-07-06T11:47:17.447Z,39.40
2018-07-06T11:49:46.545Z,36.80
2018-07-06T11:52:15.940Z,35.30
2018-07-06T11:54:45.976Z,37.40
2018-07-06T11:57:15.250Z,37.20
2018-07-06T11:59:44.330Z,38.00
2018-07-06T12:02:13.434Z,38.60
2018-07-06T12:04:42.597Z,42.80
2018-07-06T12:07:12.533Z,46.50
2018-07-06T12:09:41.891Z,49.10
2018-07-06T12:12:13.672Z,47.50
2018-07-06T12:14:43.383Z,47.60
2018-07-06T12:17:13.648Z,45.40
2018-07-06T12:19:42.819Z,43.80
2018-07-06T12:22:12.533Z,40.50
2018-07-06T12:24:42.481Z,40.00
2018-07-06T12:27:11.553Z,40.80
2018-07-06T12:29:40.754Z,38.40
2018-07-06T12:32:11.113Z,35.40
2018-07-06T12:34:40.249Z,37.90
2018-07-06T12:37:09.338Z,37.50
2018-07-06T12:39:38.881Z,37.20
2018-07-06T12:42:08.006Z,37.40
2018-07-06T12:44:37.097Z,38.10
2018-07-06T12:47:06.307Z,35.80
2018-07-06T12:49:35.925Z,36.70
2018-07-06T12:52:05.061Z,36.90
2018-07-06T12:54:35.728Z,37.60
2018-07-06T12:57:04.952Z,34.50
2018-07-06T12:59:34.040Z,34.10
2018-07-06T13:02:03.348Z,33.30
2018-07-06T13:04:33.119Z,33.80
2018-07-06T13:07:03.873Z,34.50
2018-07-06T13:09:33.198Z,36.70
2018-07-06T13:12:02.277Z,43.20
2018-07-06T13:14:32.980Z,41.80
2018-07-06T13:17:02.085Z,38.90
2018-07-06T13:19:31.181Z,38.80
2018-07-06T13:22:00.265Z,39.50
2018-07-06T13:24:29.886Z,41.10
2018-07-06T13:26:59.069Z,45.70
2018-07-06T13:29:29.055Z,46.80
2018-07-06T13:31:58.180Z,47.50
2018-07-06T13:34:27.296Z,47.30
2018-07-06T13:36:57.081Z,47.50
2018-07-06T13:39:28.034Z,47.10
2018-07-06T13:41:57.219Z,46.50
2018-07-06T13:44:26.523Z,45.10
2018-07-06T13:46:55.630Z,46.00
2018-07-06T13:49:27.362Z,46.60
2018-07-06T13:51:56.506Z,47.10
2018-07-06T13:54:25.615Z,51.00
2018-07-06T13:56:54.853Z,50.90
2018-07-06T13:59:23.962Z,49.20
2018-07-06T14:01:53.210Z,48.80
2018-07-06T14:04:22.357Z,46.00
2018-07-06T14:06:51.488Z,42.00
2018-07-06T14:09:20.597Z,39.50
2018-07-06T14:11:49.785Z,39.70
2018-07-06T14:14:18.957Z,40.20
2018-07-06T14:16:48.286Z,40.70
2018-07-06T14:19:17.865Z,40.50
2018-07-06T14:21:46.967Z,42.70
2018-07-06T14:24:16.262Z,42.40
2018-07-06T14:26:45.888Z,40.20
2018-07-06T14:29:15.064Z,38.20
2018-07-06T14:31:44.206Z,37.20
2018-07-06T14:34:13.409Z,38.90
2018-07-06T14:36:42.597Z,39.90
2018-07-06T14:39:12.048Z,39.50
2018-07-06T14:41:42.881Z,41.00
2018-07-06T14:44:11.978Z,41.20
2018-07-06T14:46:41.139Z,42.10
2018-07-06T14:49:10.536Z,42.40
2018-07-06T14:51:39.710Z,42.10
2018-07-06T14:54:08.897Z,41.70
2018-07-06T14:56:38.387Z,39.00
2018-07-06T14:59:07.523Z,37.50
2018-07-06T15:01:36.610Z,37.50
2018-07-06T15:04:06.177Z,38.40
2018-07-06T15:06:35.504Z,36.90
2018-07-06T15:09:05.230Z,34.70
2018-07-06T15:11:34.618Z,34.00
2018-07-06T15:14:03.714Z,35.10
2018-07-06T15:16:32.795Z,36.40
2018-07-06T15:19:02.261Z,36.00
2018-07-06T15:21:31.422Z,35.90
2018-07-06T15:24:00.530Z,36.00
2018-07-06T15:26:29.721Z,36.00
2018-07-06T15:28:59.257Z,35.90
2018-07-06T15:31:29.509Z,38.30
2018-07-06T15:33:58.885Z,38.20
2018-07-06T15:36:31.974Z,39.20
2018-07-06T15:39:01.381Z,40.50
2018-07-06T15:41:30.606Z,39.80
2018-07-06T15:44:00.565Z,39.40
2018-07-06T15:46:29.820Z,40.90
2018-07-06T15:48:58.972Z,42.50
2018-07-06T15:51:28.153Z,45.10
2018-07-06T15:53:57.525Z,45.20
2018-07-06T15:56:26.761Z,44.90
2018-07-06T15:58:56.524Z,45.40
2018-07-06T16:01:26.448Z,44.40
2018-07-06T16:03:55.561Z,44.90
2018-07-06T16:06:25.911Z,45.30
2018-07-06T16:08:55.041Z,44.20
2018-07-06T16:11:25.206Z,42.30
2018-07-06T16:13:55.095Z,41.80
2018-07-06T16:16:24.424Z,42.30
2018-07-06T16:18:53.544Z,42.10
2018-07-06T16:21:22.661Z,42.30
2018-07-06T16:23:51.996Z,41.60
2018-07-06T16:26:21.089Z,41.40
2018-07-06T16:28:50.277Z,40.20
2018-07-06T16:31:20.525Z,40.00
2018-07-06T16:33:50.486Z,38.50
2018-07-06T16:49:10.181Z,37.50
2018-07-06T16:51:40.839Z,38.20
2018-07-06T16:54:09.973Z,43.10
2018-07-06T16:56:39.081Z,43.10
2018-07-06T16:59:08.157Z,43.90
2018-07-06T17:01:37.460Z,43.60
2018-07-06T17:04:06.633Z,43.70
2018-07-06T17:06:35.734Z,43.40
2018-07-06T17:09:06.042Z,44.00
2018-07-06T17:11:35.152Z,43.80
2018-07-06T17:14:04.241Z,44.40
2018-07-06T17:16:34.032Z,45.10
2018-07-06T17:19:03.184Z,44.90
2018-07-06T17:21:32.453Z,46.30
2018-07-06T17:24:01.768Z,45.20
2018-07-06T17:26:30.854Z,46.10
2018-07-06T17:29:00.637Z,48.30
2018-07-06T17:31:29.777Z,48.00
2018-07-06T17:33:58.853Z,48.50
2018-07-06T17:36:27.997Z,49.80
2018-07-06T17:38:57.277Z,50.10
2018-07-06T17:41:26.579Z,49.50
2018-07-06T17:43:56.676Z,49.80
2018-07-06T17:46:26.105Z,50.90
2018-07-06T17:48:55.192Z,51.20
2018-07-06T17:51:24.285Z,51.50
2018-07-06T17:53:53.768Z,52.00
2018-07-06T17:56:22.983Z,52.80
2018-07-06T17:58:53.092Z,51.80
2018-07-06T18:01:22.573Z,52.00
2018-07-06T18:03:51.719Z,52.50
2018-07-06T18:06:21.604Z,51.30
2018-07-06T18:08:50.749Z,50.90
2018-07-06T18:11:20.459Z,51.30
2018-07-06T18:13:50.470Z,51.50
2018-07-06T18:16:19.869Z,51.70
2018-07-06T18:18:49.213Z,52.20
2018-07-06T18:21:18.353Z,52.80
2018-07-06T18:23:47.505Z,53.30
2018-07-06T18:26:16.544Z,53.20
2018-07-06T18:28:45.667Z,53.10
2018-07-06T18:31:14.948Z,53.90
2018-07-06T18:33:44.065Z,53.90
2018-07-06T18:36:13.152Z,53.80
2018-07-06T18:38:42.488Z,55.00
2018-07-06T18:41:12.110Z,54.90
2018-07-06T18:43:41.270Z,55.20
2018-07-06T18:46:10.825Z,55.70
2018-07-06T18:48:40.004Z,56.10
2018-07-06T18:51:09.123Z,56.00
2018-07-06T18:53:38.249Z,56.50
2018-07-06T18:56:07.532Z,56.00
2018-07-06T18:58:36.788Z,56.50
2018-07-06T19:01:06.455Z,57.30
2018-07-06T19:03:36.412Z,57.40
2018-07-06T19:06:05.623Z,57.40
2018-07-06T19:08:35.348Z,58.20
2018-07-06T19:11:04.485Z,58.70
2018-07-06T19:13:33.618Z,59.50
2018-07-06T19:16:02.744Z,59.70
2018-07-06T19:18:31.917Z,61.50
2018-07-06T19:21:01.469Z,61.40
2018-07-06T19:23:30.516Z,62.00
2018-07-06T19:25:59.642Z,63.90
2018-07-06T19:28:28.752Z,63.30
2018-07-06T19:30:58.148Z,64.00
2018-07-06T19:33:27.305Z,64.20
2018-07-06T19:35:56.434Z,65.20
2018-07-06T19:38:25.549Z,66.00
2018-07-06T19:40:54.600Z,68.60
2018-07-06T19:43:23.717Z,70.80
2018-07-06T19:45:53.073Z,70.80
2018-07-06T19:48:22.218Z,72.40
2018-07-06T19:50:51.340Z,72.80
2018-07-06T19:53:20.584Z,72.80
2018-07-06T19:55:49.709Z,73.40
2018-07-06T19:58:18.868Z,72.50
2018-07-06T20:00:48.051Z,73.40
2018-07-06T20:03:17.107Z,74.10
2018-07-06T20:05:46.196Z,75.80
2018-07-06T20:08:15.576Z,77.00
2018-07-06T20:10:45.533Z,76.90
2018-07-06T20:13:14.692Z,77.90
2018-07-06T20:15:43.725Z,78.50
2018-07-06T20:18:12.855Z,79.30
2018-07-06T20:20:41.988Z,80.10
2018-07-06T20:23:11.532Z,80.60
2018-07-06T20:25:40.630Z,81.60
2018-07-06T20:28:09.729Z,81.90
2018-07-06T20:30:38.921Z,83.10
2018-07-06T20:33:07.994Z,84.10
2018-07-06T20:35:37.193Z,84.90
2018-07-06T20:38:06.620Z,85.40
2018-07-06T20:40:35.709Z,85.60
2018-07-06T20:43:04.804Z,86.30
2018-07-06T20:45:34.128Z,87.10
2018-07-06T20:48:03.633Z,87.00
2018-07-06T20:50:32.688Z,87.90
2018-07-06T20:53:02.065Z,88.50
2018-07-06T20:55:31.164Z,89.50
2018-07-06T20:58:00.228Z,90.00
2018-07-06T21:00:29.585Z,90.30
2018-07-06T21:02:58.659Z,90.50
2018-07-06T21:05:27.756Z,90.40
2018-07-06T21:07:57.156Z,90.90
2018-07-06T21:10:26.280Z,90.80
2018-07-06T21:12:55.373Z,90.80
2018-07-06T21:15:24.523Z,91.20
2018-07-06T21:17:53.641Z,91.80
2018-07-06T21:20:22.749Z,91.80
2018-07-06T21:22:52.270Z,91.70
2018-07-06T21:25:21.773Z,91.90
2018-07-06T21:27:50.898Z,91.80
2018-07-06T21:30:20.018Z,91.80
2018-07-06T21:32:49.137Z,91.70
2018-07-06T21:35:18.226Z,91.70
2018-07-06T21:37:47.640Z,92.00
2018-07-06T21:40:16.732Z,92.30
2018-07-06T21:42:45.823Z,92.80
2018-07-06T21:45:15.192Z,92.80
2018-07-06T21:47:44.341Z,93.00
2018-07-06T21:50:13.653Z,93.00
2018-07-06T21:52:42.771Z,92.90
2018-07-06T21:55:11.921Z,93.20
2018-07-06T21:57:41.045Z,94.50
2018-07-06T22:00:10.153Z,93.90
2018-07-06T22:02:39.368Z,94.90
2018-07-06T22:05:08.440Z,95.00
2018-07-06T22:07:37.599Z,95.10
2018-07-06T22:10:06.676Z,95.50
2018-07-06T22:12:35.802Z,95.90
2018-07-06T22:15:05.296Z,96.20
2018-07-06T22:17:34.425Z,96.60
2018-07-06T22:20:03.497Z,96.60
2018-07-06T22:22:32.687Z,96.70
2018-07-06T22:25:01.941Z,96.60
2018-07-06T22:27:31.132Z,96.70
2018-07-06T22:30:00.373Z,96.90
2018-07-06T22:32:29.591Z,97.30
2018-07-06T22:34:58.628Z,97.40
2018-07-06T22:37:27.792Z,97.20
2018-07-06T22:39:57.104Z,97.50
2018-07-06T22:42:26.204Z,97.70
2018-07-06T22:44:55.524Z,98.00
2018-07-06T22:47:25.189Z,98.20
2018-07-06T22:49:54.280Z,98.50
2018-07-06T22:52:23.612Z,98.60
2018-07-06T22:54:52.692Z,98.50
2018-07-06T22:57:21.793Z,98.80
2018-07-06T22:59:50.957Z,99.10
2018-07-06T23:02:20.121Z,99.00
2018-07-06T23:04:49.301Z,99.10
2018-07-06T23:07:18.494Z,98.80
2018-07-06T23:09:47.621Z,98.70
2018-07-06T23:13:46.322Z,98.90
2018-07-06T23:16:15.460Z,99.10
2018-07-06T23:18:44.549Z,99.30
2018-07-06T23:21:13.689Z,99.10
2018-07-06T23:23:42.756Z,99.00
2018-07-06T23:26:11.919Z,98.70
2018-07-06T23:28:42.233Z,98.40
2018-07-06T23:31:11.341Z,98.50
2018-07-06T23:33:40.414Z,98.30
2018-07-06T23:36:09.496Z,98.10
2018-07-06T23:38:38.575Z,98.10
2018-07-06T23:41:07.796Z,98.20
2018-07-06T23:43:37.120Z,98.50
2018-07-06T23:46:06.206Z,98.60
2018-07-06T23:48:35.265Z,99.00
2018-07-06T23:51:04.404Z,98.90
2018-07-06T23:53:33.790Z,98.90
2018-07-06T23:56:02.909Z,99.10
2018-07-06T23:58:32.321Z,99.10
